Time;durP1;ratioP1;P1;durP2;ratioP2;P2;SDS_P1;SDS_P2;PMS_P1;PMS_P2;Temp;Humidity;BMP_temperature;BMP_pressure;BME280_temperature;BME280_humidity;BME280_pressure;Samples;Min_cycle;Max_cycle;Signal;HPM_P1;HPM_P2
2022/02/15 00:02:16;;;;;;;11.25;2.88;;;;;;;4.87;100.00;100171.63;4962033;28;20068;-75
2022/02/15 00:04:42;;;;;;;18.98;3.25;;;;;;;4.82;100.00;100159.00;4972189;28;20548;-75
2022/02/15 00:07:07;;;;;;;7.38;2.80;;;;;;;4.82;100.00;100155.56;4963041;28;20046;-74
2022/02/15 00:09:33;;;;;;;10.55;3.10;;;;;;;4.66;100.00;100156.78;4979859;28;20535;-75
2022/02/15 00:11:59;;;;;;;12.05;2.70;;;;;;;4.64;100.00;100152.69;4984066;28;20041;-75
2022/02/15 00:14:24;;;;;;;9.13;3.45;;;;;;;4.77;100.00;100165.53;4966025;28;20046;-78
2022/02/15 00:16:50;;;;;;;7.80;2.80;;;;;;;4.82;100.00;100153.81;4975578;28;20038;-76
2022/02/15 00:19:17;;;;;;;13.05;3.05;;;;;;;4.88;100.00;100145.50;4976882;28;20038;-77
2022/02/15 00:21:43;;;;;;;10.07;2.78;;;;;;;5.02;100.00;100154.78;4959268;28;20038;-75
2022/02/15 00:24:09;;;;;;;7.55;2.67;;;;;;;5.00;100.00;100146.28;4972941;28;20030;-76
2022/02/15 00:26:34;;;;;;;10.25;2.67;;;;;;;5.01;100.00;100149.69;4982912;28;20453;-74
2022/02/15 00:29:01;;;;;;;9.68;3.20;;;;;;;5.02;100.00;100151.34;4970821;28;20431;-75
2022/02/15 00:31:28;;;;;;;9.38;2.45;;;;;;;5.19;100.00;100152.59;4952972;28;20035;-75
2022/02/15 00:33:53;;;;;;;7.53;2.55;;;;;;;5.07;100.00;100147.44;4964170;28;20121;-75
2022/02/15 00:36:19;;;;;;;9.57;2.67;;;;;;;5.11;100.00;100149.78;4984132;28;20126;-75
2022/02/15 00:38:47;;;;;;;11.30;2.88;;;;;;;5.16;100.00;100158.03;4979459;28;20045;-75
2022/02/15 00:41:15;;;;;;;12.30;2.80;;;;;;;5.24;100.00;100164.25;4974923;28;20836;-74
2022/02/15 00:43:41;;;;;;;7.32;2.40;;;;;;;5.28;100.00;100161.41;4962471;28;20026;-75
2022/02/15 00:46:06;;;;;;;6.93;2.63;;;;;;;5.28;100.00;100157.03;4954639;28;20068;-74
2022/02/15 00:48:32;;;;;;;10.95;2.92;;;;;;;5.43;100.00;100160.94;4970777;28;20034;-74
2022/02/15 00:50:58;;;;;;;13.13;2.78;;;;;;;5.48;100.00;100165.75;4955516;28;20084;-75
2022/02/15 00:53:24;;;;;;;11.82;3.22;;;;;;;5.53;100.00;100157.59;4961031;28;20043;-75
2022/02/15 00:55:49;;;;;;;12.70;3.00;;;;;;;5.73;100.00;100164.56;4977465;28;20117;-75
2022/02/15 00:58:15;;;;;;;8.95;2.65;;;;;;;5.81;100.00;100169.91;4981303;28;20455;-74
2022/02/15 01:00:41;;;;;;;14.75;3.00;;;;;;;5.88;99.91;100157.22;4986593;28;20210;-75
2022/02/15 01:03:06;;;;;;;10.95;3.25;;;;;;;5.94;99.27;100163.69;4985174;28;20042;-74
2022/02/15 01:05:32;;;;;;;9.10;2.40;;;;;;;5.98;99.30;100162.50;4986175;28;20034;-75
2022/02/15 01:07:58;;;;;;;11.50;3.63;;;;;;;5.97;98.98;100169.50;4985287;28;20195;-74
2022/02/15 01:10:24;;;;;;;11.45;3.00;;;;;;;6.04;98.19;100165.38;4978193;28;20041;-74
2022/02/15 01:12:50;;;;;;;12.48;2.97;;;;;;;6.08;98.50;100173.75;4985754;28;20038;-74
2022/02/15 01:15:16;;;;;;;11.05;2.80;;;;;;;6.07;99.18;100166.91;4983250;28;20035;-74
2022/02/15 01:17:46;;;;;;;8.60;3.30;;;;;;;6.04;98.15;100162.78;4964485;28;20105;-75
2022/02/15 01:20:13;;;;;;;7.78;3.05;;;;;;;6.04;98.31;100159.38;4969971;28;20034;-76
2022/02/15 01:22:39;;;;;;;7.50;2.83;;;;;;;6.12;98.25;100162.16;4963361;28;20077;-75
2022/02/15 01:25:05;;;;;;;10.90;3.38;;;;;;;6.12;98.49;100171.72;4955703;28;20639;-74
2022/02/15 01:27:31;;;;;;;12.63;3.53;;;;;;;6.12;98.22;100169.97;4969386;28;20056;-74
2022/02/15 01:29:57;;;;;;;9.02;3.13;;;;;;;6.15;98.21;100163.66;4954788;28;20402;-75
2022/02/15 01:32:23;;;;;;;9.77;3.20;;;;;;;6.18;97.77;100168.63;4984715;28;20030;-75
2022/02/15 01:34:49;;;;;;;6.43;2.92;;;;;;;6.14;97.88;100170.66;4951249;28;20042;-75
2022/02/15 01:37:15;;;;;;;9.18;3.60;;;;;;;6.17;98.22;100177.38;4975997;28;20031;-75
2022/02/15 01:39:41;;;;;;;12.02;3.88;;;;;;;6.28;97.96;100176.44;4989898;28;20679;-76
2022/02/15 01:42:07;;;;;;;9.73;3.42;;;;;;;6.26;96.93;100170.56;4982289;28;20039;-76
2022/02/15 01:44:35;;;;;;;9.00;3.75;;;;;;;6.35;97.61;100169.75;4991069;28;20525;-75
2022/02/15 01:47:03;;;;;;;15.60;4.57;;;;;;;6.37;96.07;100170.44;4986599;28;20041;-75
2022/02/15 01:49:28;;;;;;;9.60;3.67;;;;;;;6.37;96.42;100175.66;4977945;28;20110;-76
2022/02/15 01:51:54;;;;;;;11.18;4.43;;;;;;;6.45;95.93;100173.19;4970671;28;20523;-75
2022/02/15 01:54:19;;;;;;;9.13;4.43;;;;;;;6.42;96.71;100165.63;4956332;28;20444;-74
2022/02/15 01:56:46;;;;;;;11.85;4.30;;;;;;;6.42;96.89;100174.31;4983405;28;20437;-74
2022/02/15 01:59:11;;;;;;;13.05;4.32;;;;;;;6.49;95.59;100176.38;4993158;28;20494;-75
2022/02/15 02:01:37;;;;;;;10.93;4.35;;;;;;;6.50;96.28;100168.41;4969769;28;20030;-75
2022/02/15 02:05:47;;;;;;;12.60;4.20;;;;;;;6.45;96.42;100175.81;4987353;28;20034;-75
2022/02/15 02:06:56;;;;;;;6.97;4.40;;;;;;;6.49;96.75;100166.75;4990195;28;20528;-75
2022/02/15 02:09:23;;;;;;;11.93;5.32;;;;;;;6.48;96.08;100165.13;4977984;28;20117;-75
2022/02/15 02:11:49;;;;;;;11.80;4.65;;;;;;;6.60;95.38;100171.84;4977719;28;20057;-75
2022/02/15 02:14:23;;;;;;;10.30;4.72;;;;;;;6.54;95.96;100176.78;4967155;28;20133;-75
2022/02/15 02:16:51;;;;;;;10.77;4.82;;;;;;;6.49;96.67;100168.56;4992213;28;20069;-75
2022/02/15 02:19:24;;;;;;;9.65;5.43;;;;;;;6.40;96.41;100171.00;4991682;28;20126;-74
2022/02/15 02:21:51;;;;;;;15.85;4.75;;;;;;;6.50;96.09;100168.41;4989655;28;20108;-74
2022/02/15 02:24:18;;;;;;;9.93;4.97;;;;;;;6.52;96.21;100178.72;4975653;28;20042;-75
2022/02/15 02:26:47;;;;;;;12.40;4.80;;;;;;;6.57;95.68;100177.34;4985195;28;20097;-73
2022/02/15 02:29:12;;;;;;;12.02;5.35;;;;;;;6.57;95.66;100176.50;4969563;28;20117;-75
2022/02/15 02:31:45;;;;;;;10.25;4.75;;;;;;;6.47;96.90;100178.28;4983108;28;20034;-74
2022/02/15 02:34:12;;;;;;;7.70;5.07;;;;;;;6.52;96.35;100182.13;4987370;28;20034;-75
2022/02/15 02:36:47;;;;;;;8.13;4.80;;;;;;;6.53;96.46;100190.78;4966605;28;20495;-75
2022/02/15 02:39:19;;;;;;;9.52;5.07;;;;;;;6.56;95.73;100193.13;4971594;28;20389;-76
2022/02/15 02:41:46;;;;;;;8.73;4.90;;;;;;;6.62;96.40;100195.19;4971648;28;20061;-74
2022/02/15 02:44:11;;;;;;;10.38;5.32;;;;;;;6.52;96.84;100183.94;4982239;28;20030;-75
2022/02/15 02:46:37;;;;;;;10.88;5.45;;;;;;;6.49;97.31;100200.63;4972175;28;20034;-74
2022/02/15 02:49:03;;;;;;;11.02;6.00;;;;;;;6.51;96.51;100197.91;4953162;28;20034;-76
2022/02/15 02:51:32;;;;;;;11.23;5.60;;;;;;;6.59;96.62;100211.06;4982011;28;20117;-75
2022/02/15 02:53:57;;;;;;;14.40;6.35;;;;;;;6.53;97.45;100211.63;4970428;28;20038;-76
2022/02/15 02:56:24;;;;;;;11.88;6.40;;;;;;;6.50;98.25;100217.06;4984679;28;20038;-76
2022/02/15 02:58:52;;;;;;;11.90;5.95;;;;;;;6.45;98.78;100211.47;4973532;28;20037;-75
2022/02/15 03:01:18;;;;;;;10.93;5.70;;;;;;;6.43;99.17;100224.63;4987424;28;20041;-75
2022/02/15 03:03:44;;;;;;;11.48;6.15;;;;;;;6.42;99.79;100231.63;4962274;28;20048;-76
2022/02/15 03:06:10;;;;;;;15.50;6.63;;;;;;;6.41;100.00;100229.94;4984227;28;20109;-75
2022/02/15 03:08:36;;;;;;;10.93;6.55;;;;;;;6.39;100.00;100234.47;4971640;28;20180;-75
2022/02/15 03:11:02;;;;;;;12.48;6.97;;;;;;;6.42;100.00;100243.78;4985682;28;20033;-75
2022/02/15 03:13:40;;;;;;;14.48;7.20;;;;;;;6.33;100.00;100240.22;4963007;28;20030;-75
2022/02/15 03:16:12;;;;;;;12.45;7.55;;;;;;;6.29;100.00;100240.59;4976029;28;20040;-75
2022/02/15 03:18:40;;;;;;;12.18;6.53;;;;;;;6.27;100.00;100252.94;4968681;28;20026;-75
2022/02/15 03:21:09;;;;;;;15.15;6.85;;;;;;;6.19;100.00;100254.41;4971396;28;20484;-76
2022/02/15 03:23:35;;;;;;;14.10;6.97;;;;;;;6.08;100.00;100249.28;4956336;28;20452;-75
2022/02/15 03:26:02;;;;;;;10.75;7.50;;;;;;;5.94;100.00;100260.00;4990831;28;20037;-75
2022/02/15 03:28:30;;;;;;;12.55;7.43;;;;;;;5.85;100.00;100264.19;4955990;28;20464;-76
2022/02/15 03:30:57;;;;;;;13.48;7.63;;;;;;;5.81;100.00;100261.00;4985127;28;20651;-75
2022/02/15 03:33:24;;;;;;;14.27;7.85;;;;;;;5.75;100.00;100276.31;4979329;28;20039;-75
2022/02/15 03:35:50;;;;;;;11.70;7.10;;;;;;;5.74;100.00;100264.25;4987430;28;20045;-75
2022/02/15 03:38:16;;;;;;;11.98;6.80;;;;;;;5.74;100.00;100272.06;4986608;28;20162;-75
2022/02/15 03:43:46;;;;;;;8.10;6.30;;;;;;;5.69;100.00;100271.59;4979845;28;20042;-75
2022/02/15 03:46:17;;;;;;;10.52;7.05;;;;;;;5.61;100.00;100270.50;4968719;28;20058;-75
2022/02/15 03:48:43;;;;;;;7.90;6.50;;;;;;;5.62;100.00;100281.72;4982435;28;20445;-75
2022/02/15 03:51:09;;;;;;;13.25;6.65;;;;;;;5.57;100.00;100274.25;4982594;28;20053;-76
2022/02/15 03:53:41;;;;;;;12.73;6.97;;;;;;;5.63;100.00;100281.59;4968735;28;20042;-75
2022/02/15 03:56:09;;;;;;;8.85;6.90;;;;;;;5.61;100.00;100291.31;4972170;28;20042;-76
2022/02/15 03:58:35;;;;;;;12.73;7.10;;;;;;;5.62;100.00;100286.91;4957044;28;20488;-76
2022/02/15 04:01:05;;;;;;;11.43;6.68;;;;;;;5.59;100.00;100295.78;4988729;28;20045;-75
2022/02/15 04:03:30;;;;;;;8.50;6.30;;;;;;;5.52;100.00;100289.44;4982193;28;20042;-75
2022/02/15 04:05:57;;;;;;;12.15;5.78;;;;;;;5.54;100.00;100289.28;4975465;28;20656;-76
2022/02/15 04:08:23;;;;;;;8.60;5.65;;;;;;;5.44;100.00;100295.28;4982093;28;20590;-75
2022/02/15 04:10:49;;;;;;;8.70;5.57;;;;;;;5.49;100.00;100300.09;4969960;28;20385;-75
2022/02/15 04:13:18;;;;;;;7.35;4.85;;;;;;;5.49;100.00;100304.47;4971757;28;20092;-76
2022/02/15 04:15:45;;;;;;;6.57;4.55;;;;;;;5.53;100.00;100306.69;4987095;28;20029;-75
2022/02/15 04:18:11;;;;;;;9.98;4.78;;;;;;;5.50;100.00;100309.56;4970815;28;20026;-76
2022/02/15 04:20:37;;;;;;;9.13;4.45;;;;;;;5.54;100.00;100303.16;4957454;28;20026;-75
2022/02/15 04:23:05;;;;;;;8.88;4.80;;;;;;;5.56;100.00;100314.25;4969600;28;20383;-76
2022/02/15 04:25:31;;;;;;;7.60;4.65;;;;;;;5.54;100.00;100318.75;4997161;28;20034;-75
2022/02/15 04:28:00;;;;;;;6.82;5.10;;;;;;;5.46;100.00;100316.78;4963249;28;20039;-75
2022/02/15 04:30:27;;;;;;;8.73;5.20;;;;;;;5.57;100.00;100317.69;4976860;28;20470;-75
2022/02/15 04:32:53;;;;;;;11.75;5.50;;;;;;;5.46;100.00;100305.53;4975888;28;20061;-77
2022/02/15 04:35:19;;;;;;;11.60;6.55;;;;;;;5.52;100.00;100317.22;4965090;28;20595;-75
2022/02/15 04:37:49;;;;;;;12.25;6.70;;;;;;;5.51;100.00;100305.19;4970021;28;20192;-75
2022/02/15 04:40:17;;;;;;;11.90;6.28;;;;;;;5.44;100.00;100320.44;4955978;28;20579;-75
2022/02/15 04:42:44;;;;;;;11.18;6.40;;;;;;;5.40;100.00;100321.63;4950818;28;20039;-75
2022/02/15 04:45:09;;;;;;;11.02;6.68;;;;;;;5.39;100.00;100328.63;4952657;28;20109;-74
2022/02/15 04:47:46;;;;;;;10.32;6.00;;;;;;;5.36;100.00;100333.25;4953231;28;20034;-75
2022/02/15 04:50:12;;;;;;;9.43;6.78;;;;;;;5.34;100.00;100342.94;4964261;28;20027;-76
2022/02/15 04:52:40;;;;;;;9.77;6.25;;;;;;;5.34;100.00;100348.16;4971766;28;20059;-76
2022/02/15 04:55:12;;;;;;;11.18;5.88;;;;;;;5.38;100.00;100355.56;4954527;28;20027;-75
2022/02/15 04:57:38;;;;;;;11.43;6.88;;;;;;;5.39;100.00;100353.81;4973450;28;20038;-76
2022/02/15 05:00:08;;;;;;;13.88;6.50;;;;;;;5.40;100.00;100351.06;4991790;28;20049;-74
2022/02/15 05:03:03;;;;;;;9.48;5.80;;;;;;;5.40;100.00;100356.28;4990664;28;20030;-75
2022/02/15 05:05:31;;;;;;;11.68;6.68;;;;;;;5.35;100.00;100366.25;4986362;28;20030;-74
2022/02/15 05:07:57;;;;;;;12.75;6.60;;;;;;;5.32;100.00;100355.25;4981481;28;20064;-77
2022/02/15 05:10:25;;;;;;;12.05;5.85;;;;;;;5.34;100.00;100356.75;4980363;28;20038;-74
2022/02/15 05:12:50;;;;;;;8.57;6.30;;;;;;;5.23;100.00;100362.00;4959984;28;20159;-74
2022/02/15 05:15:27;;;;;;;11.23;6.25;;;;;;;5.26;100.00;100369.56;4971716;28;20070;-75
2022/02/15 05:18:12;;;;;;;9.98;6.20;;;;;;;5.28;100.00;100370.25;4961002;28;20030;-75
2022/02/15 05:20:42;;;;;;;11.73;6.25;;;;;;;5.21;100.00;100369.09;4967415;28;20049;-75
2022/02/15 05:23:09;;;;;;;8.93;6.35;;;;;;;5.15;100.00;100367.81;4961749;28;20046;-77
2022/02/15 05:25:39;;;;;;;12.57;6.50;;;;;;;5.22;100.00;100370.75;4996707;28;20864;-76
2022/02/15 05:28:09;;;;;;;15.20;6.60;;;;;;;5.28;100.00;100380.66;4958588;28;20038;-76
2022/02/15 05:30:36;;;;;;;13.48;6.55;;;;;;;5.21;100.00;100377.72;4983237;28;20477;-75
2022/02/15 05:33:09;;;;;;;;;;;;;;;5.31;100.00;100383.00;4975173;28;20152;-76
2022/02/15 05:35:43;;;;;;;10.10;6.30;;;;;;;5.31;100.00;100380.41;4992523;28;20263;-75
2022/02/15 05:38:08;;;;;;;13.32;6.75;;;;;;;5.21;100.00;100384.69;4967576;28;20070;-75
2022/02/15 05:40:39;;;;;;;10.00;6.20;;;;;;;5.24;100.00;100387.06;4971175;28;20042;-77
2022/02/15 05:43:12;;;;;;;12.45;6.68;;;;;;;5.24;100.00;100400.06;4985650;28;20081;-75
2022/02/15 05:45:39;;;;;;;13.32;7.15;;;;;;;5.19;100.00;100399.59;4969349;28;20034;-76
2022/02/15 05:48:13;;;;;;;9.48;6.50;;;;;;;5.17;100.00;100409.28;4954971;28;20133;-76
2022/02/15 05:50:52;;;;;;;10.43;7.32;;;;;;;5.15;100.00;100404.19;4991749;28;20034;-76
2022/02/15 05:53:26;;;;;;;14.63;7.82;;;;;;;5.19;100.00;100408.22;4985730;28;20038;-76
2022/02/15 05:55:56;;;;;;;12.30;7.63;;;;;;;5.10;100.00;100408.91;4970543;28;20038;-75
2022/02/15 05:58:29;;;;;;;10.55;7.53;;;;;;;5.11;100.00;100410.59;4971369;28;20034;-75
2022/02/15 06:00:56;;;;;;;10.30;7.13;;;;;;;5.04;100.00;100415.44;4961597;28;20035;-75
2022/02/15 06:06:09;;;;;;;9.85;7.90;;;;;;;5.05;100.00;100427.50;4972781;28;20125;-77
2022/02/15 06:08:36;;;;;;;15.65;8.13;;;;;;;5.10;100.00;100424.53;4987281;28;20134;-77
2022/02/15 06:11:05;;;;;;;14.23;8.20;;;;;;;5.12;100.00;100427.81;4969936;28;20034;-77
2022/02/15 06:13:38;;;;;;;16.55;7.65;;;;;;;5.10;100.00;100432.31;4950244;28;20039;-76
2022/02/15 06:16:09;;;;;;;14.48;7.88;;;;;;;5.11;100.00;100435.78;4977318;28;20459;-76
2022/02/15 06:18:47;;;;;;;17.05;8.30;;;;;;;5.01;100.00;100430.44;4960901;28;20042;-76
2022/02/15 06:21:12;;;;;;;14.20;8.13;;;;;;;5.12;100.00;100453.00;4992156;28;20038;-77
2022/02/15 06:23:38;;;;;;;12.15;7.60;;;;;;;5.12;100.00;100446.03;4960420;28;20034;-78
2022/02/15 06:26:08;;;;;;;16.95;8.15;;;;;;;5.13;100.00;100446.88;4959108;28;20140;-77
2022/02/15 06:28:53;;;;;;;12.95;7.80;;;;;;;5.15;100.00;100452.78;4970948;28;20034;-77
2022/02/15 06:31:22;;;;;;;14.23;8.25;;;;;;;5.16;100.00;100454.41;4975061;28;20046;-76
2022/02/15 06:33:48;;;;;;;12.98;8.05;;;;;;;5.05;100.00;100455.28;4969147;28;20109;-77
2022/02/15 06:36:15;;;;;;;12.73;8.70;;;;;;;5.06;100.00;100454.31;4971146;28;20109;-77
2022/02/15 06:38:42;;;;;;;14.98;7.55;;;;;;;5.05;100.00;100456.09;4988615;28;20041;-76
2022/02/15 06:41:12;;;;;;;14.00;8.30;;;;;;;4.97;100.00;100457.59;4954289;28;20411;-77
2022/02/15 06:44:01;;;;;;;16.02;8.07;;;;;;;5.05;100.00;100469.09;4986749;28;20093;-76
2022/02/15 06:46:35;;;;;;;10.73;8.23;;;;;;;5.05;100.00;100463.88;4960085;28;20054;-77
2022/02/15 06:49:09;;;;;;;16.60;8.45;;;;;;;5.03;100.00;100465.78;4985504;28;20050;-77
2022/02/15 06:51:36;;;;;;;13.60;7.80;;;;;;;5.04;100.00;100461.41;4968854;28;20031;-75
2022/02/15 06:54:07;;;;;;;11.82;8.30;;;;;;;5.14;100.00;100475.38;4959630;28;20185;-75
2022/02/15 06:56:45;;;;;;;13.63;8.98;;;;;;;5.16;100.00;100475.22;4993952;28;20092;-77
2022/02/15 06:59:17;;;;;;;16.00;8.75;;;;;;;5.16;100.00;100480.41;4973526;28;20136;-76
2022/02/15 07:01:43;;;;;;;17.67;8.85;;;;;;;5.15;100.00;100471.81;4967426;28;20603;-76
2022/02/15 07:04:14;;;;;;;16.75;8.52;;;;;;;5.20;100.00;100479.25;4985289;28;20049;-75
2022/02/15 07:06:40;;;;;;;19.60;9.57;;;;;;;5.22;100.00;100500.78;4983184;28;20114;-76
2022/02/15 07:09:07;;;;;;;18.13;8.95;;;;;;;5.24;100.00;100510.09;4986641;28;20516;-75
2022/02/15 07:11:50;;;;;;;16.38;8.65;;;;;;;5.24;100.00;100519.69;4982506;28;20034;-75
2022/02/15 07:14:15;;;;;;;14.00;8.65;;;;;;;5.27;100.00;100522.03;4970816;28;20065;-75
2022/02/15 07:16:43;;;;;;;14.98;8.82;;;;;;;5.22;100.00;100522.41;4981472;28;20039;-76
2022/02/15 07:19:10;;;;;;;14.10;8.75;;;;;;;5.33;100.00;100531.13;4986432;28;20370;-76
2022/02/15 07:22:03;;;;;;;20.10;10.18;;;;;;;5.36;100.00;100534.34;4976029;28;20038;-75
2022/02/15 07:24:47;;;;;;;16.67;10.18;;;;;;;5.36;100.00;100539.53;4984349;28;20034;-73
2022/02/15 07:27:22;;;;;;;17.75;10.80;;;;;;;5.34;100.00;100545.81;4971226;28;20038;-75
2022/02/15 07:29:55;;;;;;;19.98;10.85;;;;;;;5.43;100.00;100550.31;4980386;28;20081;-76
2022/02/15 07:32:29;;;;;;;21.40;11.23;;;;;;;5.36;100.00;100549.94;4963666;28;20039;-76
2022/02/15 07:34:56;;;;;;;18.02;10.90;;;;;;;5.43;100.00;100558.13;4973426;28;20824;-75
2022/02/15 07:37:23;;;;;;;16.23;10.50;;;;;;;5.49;100.00;100567.22;4989618;28;20519;-75
2022/02/15 07:39:53;;;;;;;15.43;9.65;;;;;;;5.44;100.00;100565.81;4988056;28;20053;-75
2022/02/15 07:42:19;;;;;;;14.07;9.88;;;;;;;5.44;100.00;100563.22;4963520;28;20417;-76
2022/02/15 07:44:45;;;;;;;16.25;9.20;;;;;;;5.49;100.00;100562.03;4986031;28;20893;-75
2022/02/15 07:47:11;;;;;;;14.25;9.10;;;;;;;5.55;100.00;100564.13;4953487;28;20034;-75
2022/02/15 07:49:37;;;;;;;15.20;9.68;;;;;;;5.58;100.00;100572.53;4961410;28;20039;-75
2022/02/15 07:52:04;;;;;;;15.18;9.75;;;;;;;5.56;100.00;100569.22;4981915;28;20038;-75
2022/02/15 07:54:29;;;;;;;15.75;9.70;;;;;;;5.62;100.00;100566.16;4987203;28;20575;-75
2022/02/15 07:56:55;;;;;;;22.65;9.95;;;;;;;5.68;100.00;100577.84;4987466;28;20069;-77
2022/02/15 07:59:21;;;;;;;15.50;9.40;;;;;;;5.66;100.00;100587.56;4991595;28;20663;-75
2022/02/15 08:01:47;;;;;;;19.20;9.80;;;;;;;5.61;100.00;100584.47;4989819;28;20041;-75
2022/02/15 08:04:13;;;;;;;15.18;9.65;;;;;;;5.59;100.00;100584.59;4986838;28;20111;-76
2022/02/15 08:06:43;;;;;;;18.75;10.02;;;;;;;5.60;100.00;100588.03;4965651;28;20042;-75
2022/02/15 08:09:15;;;;;;;15.80;9.57;;;;;;;5.54;100.00;100578.94;4971637;28;20036;-76
2022/02/15 08:11:42;;;;;;;17.67;10.02;;;;;;;5.58;100.00;100587.34;4978471;28;20030;-75
2022/02/15 08:14:07;;;;;;;17.23;10.13;;;;;;;5.55;100.00;100595.38;4985045;28;20034;-75
2022/02/15 08:16:33;;;;;;;15.40;9.68;;;;;;;5.54;100.00;100578.94;4981926;28;20041;-74
2022/02/15 08:18:59;;;;;;;16.90;9.38;;;;;;;5.65;100.00;100589.34;4980095;28;20044;-75
2022/02/15 08:21:24;;;;;;;15.45;9.52;;;;;;;5.68;100.00;100590.88;4968542;28;20128;-76
2022/02/15 08:23:50;;;;;;;16.20;9.18;;;;;;;5.70;100.00;100595.97;4974401;28;20184;-76
2022/02/15 08:26:17;;;;;;;18.20;9.38;;;;;;;5.74;100.00;100600.78;4971375;28;20041;-76
2022/02/15 08:28:44;;;;;;;14.15;8.60;;;;;;;5.77;100.00;100605.78;4982349;28;20034;-75
2022/02/15 08:31:14;;;;;;;12.52;8.05;;;;;;;5.77;100.00;100613.59;4970314;28;20023;-74
2022/02/15 08:33:40;;;;;;;12.75;8.18;;;;;;;5.79;100.00;100613.47;4977541;28;20030;-75
2022/02/15 08:36:06;;;;;;;16.90;8.43;;;;;;;5.80;100.00;100620.31;4988241;28;20038;-77
2022/02/15 08:38:33;;;;;;;15.70;9.00;;;;;;;5.82;100.00;100621.88;4992140;28;20114;-76
2022/02/15 08:41:00;;;;;;;18.13;9.90;;;;;;;5.81;100.00;100620.19;4987478;28;20073;-77
2022/02/15 08:43:26;;;;;;;15.95;10.00;;;;;;;5.77;100.00;100623.19;4983882;28;20488;-77
2022/02/15 08:45:52;;;;;;;21.63;10.48;;;;;;;5.63;100.00;100619.88;4988160;28;20582;-76
2022/02/15 08:48:18;;;;;;;17.17;10.02;;;;;;;5.73;100.00;100627.78;4989286;28;20034;-75
2022/02/15 08:50:43;;;;;;;15.57;10.02;;;;;;;5.69;100.00;100634.19;4963259;28;20066;-76
2022/02/15 08:53:10;;;;;;;17.40;10.65;;;;;;;5.70;100.00;100625.41;4969907;28;20037;-75
2022/02/15 08:55:36;;;;;;;20.70;10.45;;;;;;;5.73;100.00;100625.19;4992997;28;20027;-76
2022/02/15 08:58:01;;;;;;;17.73;10.70;;;;;;;5.76;100.00;100639.72;4991755;28;20030;-75
2022/02/15 09:00:27;;;;;;;16.17;10.45;;;;;;;5.77;100.00;100636.19;4957141;28;20556;-75
2022/02/15 09:02:53;;;;;;;18.90;10.15;;;;;;;5.85;100.00;100645.03;4989973;28;20091;-76
2022/02/15 09:05:19;;;;;;;15.25;10.25;;;;;;;5.98;100.00;100638.94;4980311;28;20508;-75
2022/02/15 09:07:44;;;;;;;14.68;9.25;;;;;;;6.10;100.00;100643.16;4978033;28;20523;-76
2022/02/15 09:10:10;;;;;;;17.95;10.07;;;;;;;6.20;100.00;100649.34;4987841;28;20080;-76
2022/02/15 09:12:36;;;;;;;13.73;9.00;;;;;;;6.20;100.00;100646.72;4975774;28;20165;-75
2022/02/15 09:15:04;;;;;;;19.33;8.82;;;;;;;6.30;100.00;100646.00;4983115;28;20517;-75
2022/02/15 09:17:36;;;;;;;17.92;8.77;;;;;;;6.42;100.00;100656.28;4982322;28;20062;-76
2022/02/15 09:20:04;;;;;;;11.77;7.63;;;;;;;6.51;100.00;100659.91;4974668;28;20039;-75
2022/02/15 09:22:30;;;;;;;13.60;7.32;;;;;;;6.50;100.00;100647.84;4947848;28;20034;-76
2022/02/15 09:24:56;;;;;;;12.10;6.88;;;;;;;6.57;100.00;100658.59;4992468;28;20076;-76
2022/02/15 09:27:21;;;;;;;14.18;7.43;;;;;;;6.60;100.00;100660.97;4989464;28;20045;-76
2022/02/15 09:29:47;;;;;;;10.82;8.02;;;;;;;6.56;100.00;100660.41;4976633;28;20088;-76
2022/02/15 09:32:12;;;;;;;8.48;5.28;;;;;;;6.58;100.00;100660.28;4992491;28;20042;-77
2022/02/15 09:34:38;;;;;;;10.30;5.65;;;;;;;6.65;100.00;100655.38;4981510;28;20035;-75
2022/02/15 09:37:04;;;;;;;7.80;5.05;;;;;;;6.78;100.00;100651.69;4992385;28;20516;-76
2022/02/15 09:39:30;;;;;;;9.07;4.97;;;;;;;6.77;100.00;100662.22;4974322;28;20046;-75
2022/02/15 09:41:56;;;;;;;9.60;4.85;;;;;;;6.78;100.00;100674.31;4986151;28;20404;-75
2022/02/15 09:44:23;;;;;;;10.43;4.40;;;;;;;6.74;99.64;100667.69;4975540;28;20539;-75
2022/02/15 09:46:50;;;;;;;7.15;4.70;;;;;;;6.76;100.00;100669.22;4992646;28;20039;-75
2022/02/15 09:52:01;;;;;;;7.18;4.35;;;;;;;6.90;99.83;100683.75;4964095;28;20050;-76
2022/02/15 09:54:28;;;;;;;5.32;3.70;;;;;;;6.90;96.68;100673.31;4986931;28;20030;-76
2022/02/15 09:56:53;;;;;;;10.75;3.88;;;;;;;6.94;98.17;100674.72;4986785;28;20400;-75
2022/02/15 09:59:19;;;;;;;10.45;4.28;;;;;;;6.94;97.28;100663.47;4959459;28;20034;-76
2022/02/15 10:01:46;;;;;;;6.55;3.55;;;;;;;7.13;98.03;100675.84;4984973;28;20121;-76
2022/02/15 10:04:12;;;;;;;8.27;3.67;;;;;;;7.15;95.77;100674.75;4978750;28;20109;-76
2022/02/15 10:06:40;;;;;;;6.30;3.42;;;;;;;7.30;96.87;100685.69;4990165;28;21006;-75
2022/02/15 10:09:08;;;;;;;9.93;4.00;;;;;;;7.31;95.56;100689.13;4992062;28;20048;-76
2022/02/15 10:11:40;;;;;;;6.45;3.47;;;;;;;7.30;94.88;100685.69;4984777;28;20464;-75
2022/02/15 10:14:06;;;;;;;6.65;3.30;;;;;;;7.28;94.41;100690.22;4982164;28;20031;-76
2022/02/15 10:16:44;;;;;;;6.40;4.20;;;;;;;7.29;94.90;100685.81;4983113;28;20125;-76
2022/02/15 10:19:20;;;;;;;11.20;3.67;;;;;;;7.30;93.12;100698.75;4987363;28;20038;-74
2022/02/15 10:21:48;;;;;;;9.10;4.72;;;;;;;7.21;94.56;100686.47;4990251;28;20165;-75
2022/02/15 10:24:14;;;;;;;6.85;4.50;;;;;;;7.17;94.60;100698.91;4986316;28;20045;-76
2022/02/15 10:26:40;;;;;;;12.50;5.28;;;;;;;7.20;95.21;100693.47;4987622;28;20027;-75
2022/02/15 10:29:06;;;;;;;9.90;5.13;;;;;;;7.19;95.66;100697.00;4972669;28;20046;-76
2022/02/15 10:31:39;;;;;;;7.40;5.70;;;;;;;7.25;96.27;100700.09;4988777;28;20183;-76
2022/02/15 10:34:05;;;;;;;7.20;5.32;;;;;;;7.11;96.99;100690.78;4990270;28;20057;-75
2022/02/15 10:36:30;;;;;;;9.90;5.32;;;;;;;7.09;98.07;100696.13;4986481;28;20030;-76
2022/02/15 10:38:57;;;;;;;8.85;5.40;;;;;;;6.97;96.18;100694.53;4990062;28;20696;-76
2022/02/15 10:41:23;;;;;;;9.48;6.18;;;;;;;7.10;96.30;100697.78;4975155;28;20038;-75
2022/02/15 10:43:54;;;;;;;11.45;6.25;;;;;;;7.22;96.31;100698.56;4971842;28;20034;-76
2022/02/15 10:46:30;;;;;;;12.20;6.55;;;;;;;7.40;94.41;100699.66;4958201;28;20038;-75
2022/02/15 10:48:57;;;;;;;12.73;6.47;;;;;;;7.50;94.35;100702.34;4966158;28;20046;-76
2022/02/15 10:51:25;;;;;;;10.55;6.28;;;;;;;7.65;94.45;100702.84;4982765;28;20034;-76
2022/02/15 10:53:51;;;;;;;12.48;6.18;;;;;;;7.59;93.73;100712.00;4968856;28;20121;-76
2022/02/15 10:56:17;;;;;;;10.98;5.88;;;;;;;7.49;93.09;100703.28;4970611;28;20034;-76
2022/02/15 10:58:45;;;;;;;8.55;5.88;;;;;;;7.38;91.15;100703.34;4956223;28;20512;-76
2022/02/15 11:01:12;;;;;;;12.10;6.32;;;;;;;7.16;93.41;100692.06;4986394;28;20527;-75
2022/02/15 11:03:40;;;;;;;12.23;6.60;;;;;;;7.25;94.45;100707.91;4998421;28;20081;-76
2022/02/15 11:06:07;;;;;;;11.70;6.60;;;;;;;7.26;93.12;100715.63;4985558;28;20067;-76
2022/02/15 11:08:37;;;;;;;8.30;6.43;;;;;;;7.26;95.66;100710.41;4981590;28;20041;-77
2022/02/15 11:11:09;;;;;;;10.77;6.50;;;;;;;7.17;94.75;100717.19;4968833;28;20026;-76
2022/02/15 11:13:36;;;;;;;9.25;7.25;;;;;;;7.01;96.10;100722.00;4975489;28;20493;-77
2022/02/15 11:16:10;;;;;;;8.30;6.50;;;;;;;6.92;96.45;100710.53;4985828;28;20030;-76
2022/02/15 11:18:36;;;;;;;15.55;8.23;;;;;;;6.87;96.50;100714.47;4981642;28;20513;-76
2022/02/15 11:21:04;;;;;;;13.50;8.82;;;;;;;6.87;97.41;100717.88;4987035;28;20121;-76
2022/02/15 11:23:32;;;;;;;13.15;8.80;;;;;;;6.97;95.82;100718.81;4978847;28;20698;-76
2022/02/15 11:26:17;;;;;;;15.68;8.73;;;;;;;7.01;97.79;100720.22;4984883;28;20069;-77
2022/02/15 11:28:58;;;;;;;17.02;9.10;;;;;;;7.12;93.28;100710.69;4984471;28;20061;-75
2022/02/15 11:31:39;;;;;;;15.20;9.15;;;;;;;7.23;92.21;100700.19;4985918;28;20493;-76
2022/02/15 11:34:12;;;;;;;13.93;9.65;;;;;;;7.24;92.39;100714.09;4987767;28;20045;-78
2022/02/15 11:36:49;;;;;;;12.98;8.95;;;;;;;7.23;93.34;100715.84;4970960;28;20493;-80